Airfield :
LOGIN :

Register | Disclaimer

   EN    FR    IT 

 










Legend :    VFR   Marginal VFR   IFR   Intensive IFR   Very Intensive IFR
Visi :
Ceiling :
>= 8 km
>= 3000ft
5 to 8 km
1000 to 3000 ft
1500m to 5 km
500 to 1000 ft
800 to 1500m
200 to 500 ft
< 800m
< 200 ft
Symbols :   Thunderstorms  Fog  Heavy snow  Heavy precipitations  Wind > 20 kt
SIGMETs :     Misc.  Thunderstorms  Icing  Turbulence  Mountain Waves  Volcanic Ashes







- Airport Elevation : 1273 ft
- IATA code : LJU


LJLJ - Ljubljana

CURRENT METAR :
  • 271130Z 10005KT 050V140 9999 FEW068 33/20 Q1019 NOSIG

EXPIRED METARs :
  • 271100Z 11004KT 070V150 9999 FEW068 32/22 Q1019 NOSIG
  • 271030Z 08004KT 040V130 9999 FEW065 31/22 Q1020 NOSIG
  • 271000Z 06004KT 040V110 CAVOK 30/21 Q1020 NOSIG
  • 270930Z 06004KT 350V090 CAVOK 29/22 Q1020 NOSIG
  • 270900Z 06002KT CAVOK 29/21 Q1020 NOSIG

TAF TAF LJLJ
Valid from the 27 at 12:00 until the 28 at 12:00 UTC


271100Z 2712/2812 12005KT 9999 FEW060
PROB30
TEMPO 2714/2722 VRB15G35KT 6000 TSRA BKN050CB
BECMG 2718/2721 VRB02KT
BECMG 2808/2809 12005KT
No reported NOTAMs for that airfield.



MET'MAP, your aeronautical weather chart ! - Copyright ORBIFLY December 2007 - Disclaimer

ORBIFLY MET'MAP TEAM :

Programming & Development : Alexandra Zaïnal
Concept & Development : Baudouin d'Aumeries
Co-Development & Prog : Marc-Olivier Méhu
Technical & hardware support : Manuel Goepfert

Contact : metmap@orbifly.com




SOURCES & CREDITS :

   NOAA